createdAt,value
2019-06-26T00:00:09.098Z,0.00
2019-06-26T00:01:09.016Z,0.00
2019-06-26T00:02:09.001Z,0.00
2019-06-26T00:03:09.007Z,0.00
2019-06-26T00:04:09.000Z,0.00
2019-06-26T00:05:09.174Z,0.00
2019-06-26T00:06:08.963Z,0.00
2019-06-26T00:07:08.980Z,0.00
2019-06-26T00:08:09.002Z,0.00
2019-06-26T00:09:08.931Z,0.00
2019-06-26T00:10:08.909Z,0.00
2019-06-26T00:11:08.911Z,0.00
2019-06-26T00:12:08.893Z,0.00
2019-06-26T00:13:08.879Z,0.00
2019-06-26T00:14:08.931Z,0.00
2019-06-26T00:15:08.877Z,0.00
2019-06-26T00:16:08.859Z,0.00
2019-06-26T00:17:08.827Z,0.00
2019-06-26T00:18:08.815Z,0.00
2019-06-26T00:19:08.806Z,0.00
2019-06-26T00:20:08.835Z,0.00
2019-06-26T00:21:08.793Z,0.00
2019-06-26T00:22:08.772Z,0.00
2019-06-26T00:23:08.778Z,0.00
2019-06-26T00:24:08.745Z,0.00
2019-06-26T00:25:08.772Z,0.00
2019-06-26T00:26:08.762Z,0.00
2019-06-26T00:27:08.736Z,0.00
2019-06-26T00:28:08.703Z,0.00
2019-06-26T00:29:08.723Z,0.00
2019-06-26T00:30:08.694Z,0.00
2019-06-26T00:31:08.706Z,0.00
2019-06-26T00:32:08.684Z,0.00
2019-06-26T00:33:08.664Z,0.00
2019-06-26T00:34:08.656Z,0.00
2019-06-26T00:35:08.639Z,0.00
2019-06-26T00:36:08.657Z,0.00
2019-06-26T00:37:08.640Z,0.00
2019-06-26T00:38:08.609Z,0.00
2019-06-26T00:39:08.601Z,0.00
2019-06-26T00:40:08.585Z,0.00
2019-06-26T00:41:08.567Z,0.00
2019-06-26T00:42:08.596Z,0.00
2019-06-26T00:43:08.564Z,0.00
2019-06-26T00:44:08.553Z,0.00
2019-06-26T00:45:08.558Z,0.00
2019-06-26T00:46:08.541Z,0.00
2019-06-26T00:47:08.511Z,0.00
2019-06-26T00:48:08.495Z,0.00
2019-06-26T00:49:08.547Z,0.00
2019-06-26T00:50:08.496Z,0.00
2019-06-26T00:51:08.469Z,0.00
2019-06-26T00:52:08.463Z,0.00
2019-06-26T00:53:08.451Z,0.00
2019-06-26T00:54:08.573Z,0.00
2019-06-26T00:55:08.630Z,0.00
2019-06-26T00:56:08.433Z,0.00
2019-06-26T00:57:08.411Z,0.00
2019-06-26T00:58:08.396Z,0.00
2019-06-26T00:59:08.412Z,0.00
2019-06-26T01:00:08.404Z,0.00
2019-06-26T01:01:08.555Z,0.00
2019-06-26T01:02:08.348Z,0.00
2019-06-26T01:03:08.402Z,0.00
2019-06-26T01:04:08.533Z,0.00
2019-06-26T01:05:08.345Z,0.00
2019-06-26T01:06:08.307Z,0.00
2019-06-26T01:07:08.294Z,0.00
2019-06-26T01:08:08.482Z,0.00
2019-06-26T01:09:08.274Z,0.00
2019-06-26T01:10:08.269Z,0.00
2019-06-26T01:11:08.279Z,0.00
2019-06-26T01:12:08.259Z,0.00
2019-06-26T01:13:08.296Z,0.00
2019-06-26T01:14:08.223Z,0.00
2019-06-26T01:15:08.242Z,0.00
2019-06-26T01:16:08.222Z,0.00
2019-06-26T01:17:08.196Z,0.00
2019-06-26T01:18:08.195Z,0.00
2019-06-26T01:19:08.187Z,0.00
2019-06-26T01:20:08.159Z,0.00
2019-06-26T01:21:08.175Z,0.00
2019-06-26T01:22:08.138Z,0.00
2019-06-26T01:23:08.147Z,0.00
2019-06-26T01:24:08.138Z,0.00
2019-06-26T01:25:08.108Z,0.00
2019-06-26T01:26:08.107Z,0.00
2019-06-26T01:27:08.096Z,0.00
2019-06-26T01:28:08.082Z,0.00
2019-06-26T01:29:08.084Z,0.00
2019-06-26T01:30:08.231Z,0.00
2019-06-26T01:31:08.039Z,0.00
2019-06-26T01:32:08.040Z,0.00
2019-06-26T01:33:08.015Z,0.00
2019-06-26T01:34:08.014Z,0.00
2019-06-26T01:35:08.006Z,0.00
2019-06-26T01:36:08.050Z,0.00
2019-06-26T01:37:07.988Z,0.00
2019-06-26T01:38:07.967Z,0.00
2019-06-26T01:39:07.952Z,0.00
2019-06-26T01:40:07.940Z,0.00
2019-06-26T01:41:07.930Z,0.00
2019-06-26T01:42:07.960Z,0.00
2019-06-26T01:43:07.943Z,0.00
2019-06-26T01:44:14.654Z,0.00
2019-06-26T01:45:08.882Z,0.00
2019-06-26T01:46:07.912Z,0.00
2019-06-26T01:47:07.890Z,0.00
2019-06-26T01:48:07.861Z,0.00
2019-06-26T01:49:07.870Z,0.00
2019-06-26T01:50:07.861Z,0.00
2019-06-26T01:51:07.842Z,0.00
2019-06-26T01:52:07.818Z,0.00
2019-06-26T01:53:07.802Z,0.00
2019-06-26T01:54:07.819Z,0.00
2019-06-26T01:55:07.800Z,0.00
2019-06-26T01:56:07.780Z,0.00
2019-06-26T01:57:07.784Z,0.00
2019-06-26T01:58:07.770Z,0.00
2019-06-26T01:59:07.738Z,0.00
2019-06-26T02:00:07.756Z,0.00
2019-06-26T02:01:07.751Z,0.00
2019-06-26T02:02:07.711Z,0.00
2019-06-26T02:03:07.691Z,0.00
2019-06-26T02:04:07.690Z,0.00
2019-06-26T02:05:07.694Z,0.00
2019-06-26T02:06:07.678Z,0.00
2019-06-26T02:07:07.748Z,0.00
2019-06-26T02:08:07.655Z,0.00
2019-06-26T02:09:07.674Z,0.00
2019-06-26T02:10:07.936Z,0.00
2019-06-26T02:11:07.645Z,0.00
2019-06-26T02:12:07.614Z,0.00
2019-06-26T02:13:07.605Z,0.00
2019-06-26T02:14:07.587Z,0.00
2019-06-26T02:15:07.575Z,0.00
2019-06-26T02:16:07.572Z,0.00
2019-06-26T02:17:07.560Z,0.00
2019-06-26T02:18:07.553Z,0.00
2019-06-26T02:19:07.531Z,0.00
2019-06-26T02:20:07.626Z,0.00
2019-06-26T02:21:07.546Z,0.00
2019-06-26T02:22:07.539Z,0.00
2019-06-26T02:23:07.473Z,0.00
2019-06-26T02:24:07.458Z,0.00
2019-06-26T02:25:07.474Z,0.00
2019-06-26T02:26:07.439Z,0.00
2019-06-26T02:27:07.565Z,0.00
2019-06-26T02:28:07.421Z,0.00
2019-06-26T02:29:07.409Z,0.00
2019-06-26T02:30:07.424Z,0.00
2019-06-26T02:31:07.407Z,0.00
2019-06-26T02:32:07.377Z,0.00
2019-06-26T02:33:07.384Z,0.00
2019-06-26T02:34:07.353Z,0.00
2019-06-26T02:35:09.752Z,0.00
2019-06-26T02:36:07.341Z,0.00
2019-06-26T02:37:07.353Z,0.00
2019-06-26T02:38:07.306Z,0.00
2019-06-26T02:39:07.492Z,0.00
2019-06-26T02:40:07.296Z,0.00
2019-06-26T02:41:07.277Z,0.00
2019-06-26T02:42:07.280Z,0.00
2019-06-26T02:43:07.516Z,0.00
2019-06-26T02:44:07.258Z,0.00
2019-06-26T02:45:07.315Z,0.00
2019-06-26T02:46:07.231Z,0.00
2019-06-26T02:47:19.850Z,0.00
2019-06-26T02:48:08.209Z,0.00
2019-06-26T02:49:07.190Z,0.00
2019-06-26T02:50:07.176Z,0.00
2019-06-26T02:51:07.195Z,0.00
2019-06-26T02:52:07.158Z,0.00
2019-06-26T02:53:07.158Z,0.00
2019-06-26T02:54:07.177Z,0.00
2019-06-26T02:55:07.126Z,0.00
2019-06-26T02:56:07.159Z,0.00
2019-06-26T02:57:07.096Z,0.00
2019-06-26T02:58:07.101Z,0.00
2019-06-26T02:59:07.113Z,0.00
2019-06-26T03:00:07.159Z,0.00
2019-06-26T03:01:07.090Z,0.00
2019-06-26T03:02:07.045Z,0.00
2019-06-26T03:03:07.027Z,0.00
2019-06-26T03:04:07.021Z,0.00
2019-06-26T03:05:07.025Z,0.00
2019-06-26T03:06:07.018Z,0.00
2019-06-26T03:07:07.016Z,0.00
2019-06-26T03:08:06.985Z,0.00
2019-06-26T03:09:06.964Z,0.00
2019-06-26T03:10:06.970Z,0.00
2019-06-26T03:11:06.977Z,0.00
2019-06-26T03:12:06.933Z,0.00
2019-06-26T03:13:06.936Z,0.00
2019-06-26T03:14:06.918Z,0.00
2019-06-26T03:15:09.380Z,0.00
2019-06-26T03:16:06.900Z,0.00
2019-06-26T03:17:06.924Z,0.00
2019-06-26T03:18:06.871Z,0.00
2019-06-26T03:19:06.864Z,5.62
2019-06-26T03:20:06.859Z,5.62
2019-06-26T03:21:06.870Z,5.62
2019-06-26T03:22:06.850Z,5.62
2019-06-26T03:23:06.827Z,5.62
2019-06-26T03:24:06.828Z,5.62
2019-06-26T03:25:06.812Z,5.62
2019-06-26T03:26:06.797Z,5.62
2019-06-26T03:27:09.007Z,5.62
2019-06-26T03:28:06.766Z,5.62
2019-06-26T03:29:06.761Z,5.62
2019-06-26T03:30:06.785Z,11.25
2019-06-26T03:31:06.751Z,11.25
2019-06-26T03:32:06.737Z,11.25
2019-06-26T03:33:06.707Z,11.25
2019-06-26T03:34:06.711Z,11.25
2019-06-26T03:35:06.722Z,11.25
2019-06-26T03:36:06.671Z,11.25
2019-06-26T03:37:06.677Z,11.25
2019-06-26T03:38:06.684Z,16.88
2019-06-26T03:39:06.632Z,16.88
2019-06-26T03:40:06.938Z,16.88
2019-06-26T03:41:06.625Z,16.88
2019-06-26T03:42:06.613Z,16.88
2019-06-26T03:43:06.608Z,16.88
2019-06-26T03:44:06.598Z,22.50
2019-06-26T03:45:06.580Z,22.50
2019-06-26T03:46:06.602Z,22.50
2019-06-26T03:47:06.556Z,22.50
2019-06-26T03:48:06.700Z,22.50
2019-06-26T03:49:06.532Z,28.12
2019-06-26T03:50:06.531Z,28.12
2019-06-26T03:51:06.545Z,28.12
2019-06-26T03:52:06.503Z,28.12
2019-06-26T03:53:06.512Z,33.75
2019-06-26T03:54:06.550Z,33.75
2019-06-26T03:55:06.508Z,33.75
2019-06-26T03:56:06.495Z,33.75
2019-06-26T03:57:06.445Z,39.38
2019-06-26T03:58:06.442Z,39.38
2019-06-26T03:59:06.460Z,39.38
2019-06-26T04:00:06.451Z,39.38
2019-06-26T04:01:06.397Z,45.00
2019-06-26T04:02:06.384Z,45.00
2019-06-26T04:03:06.446Z,45.00
2019-06-26T04:04:06.387Z,50.62
2019-06-26T04:05:06.374Z,50.62
2019-06-26T04:06:06.347Z,50.62
2019-06-26T04:07:06.349Z,50.62
2019-06-26T04:08:06.319Z,50.62
2019-06-26T04:09:06.326Z,50.62
2019-06-26T04:10:06.303Z,56.25
2019-06-26T04:11:06.290Z,56.25
2019-06-26T04:12:06.282Z,56.25
2019-06-26T04:13:06.286Z,61.88
2019-06-26T04:14:06.284Z,67.50
2019-06-26T04:15:06.245Z,73.12
2019-06-26T04:16:06.230Z,67.50
2019-06-26T04:17:06.221Z,67.50
2019-06-26T04:18:06.215Z,67.50
2019-06-26T04:19:06.239Z,73.12
2019-06-26T04:20:06.210Z,73.12
2019-06-26T04:21:06.174Z,78.75
2019-06-26T04:22:06.163Z,78.75
2019-06-26T04:23:06.156Z,84.38
2019-06-26T04:24:06.171Z,84.38
2019-06-26T04:25:06.129Z,84.38
2019-06-26T04:26:06.169Z,84.38
2019-06-26T04:27:06.113Z,90.00
2019-06-26T04:28:06.535Z,90.00
2019-06-26T04:29:06.113Z,90.00
2019-06-26T04:30:06.166Z,90.00
2019-06-26T04:31:06.073Z,95.62
2019-06-26T04:32:06.085Z,95.62
2019-06-26T04:33:06.049Z,101.25
2019-06-26T04:34:06.058Z,101.25
2019-06-26T04:35:06.029Z,106.88
2019-06-26T04:36:06.015Z,106.88
2019-06-26T04:37:06.005Z,146.25
2019-06-26T04:38:06.032Z,123.75
2019-06-26T04:39:06.099Z,118.12
2019-06-26T04:40:05.968Z,123.75
2019-06-26T04:41:05.964Z,123.75
2019-06-26T04:42:05.951Z,129.38
2019-06-26T04:43:05.941Z,129.38
2019-06-26T04:44:05.939Z,135.00
2019-06-26T04:45:05.931Z,168.75
2019-06-26T04:46:05.897Z,213.75
2019-06-26T04:47:05.901Z,236.25
2019-06-26T04:48:07.177Z,258.75
2019-06-26T04:49:05.884Z,202.50
2019-06-26T04:50:05.930Z,180.00
2019-06-26T04:51:05.844Z,236.25
2019-06-26T04:52:05.839Z,298.12
2019-06-26T04:53:05.859Z,315.00
2019-06-26T04:54:05.811Z,241.88
2019-06-26T04:55:05.825Z,219.38
2019-06-26T04:56:05.821Z,286.88
2019-06-26T04:57:05.783Z,309.38
2019-06-26T04:58:05.769Z,230.62
2019-06-26T04:59:05.765Z,247.50
2019-06-26T05:00:05.855Z,326.25
2019-06-26T05:01:05.747Z,326.25
2019-06-26T05:02:05.800Z,315.00
2019-06-26T05:03:05.713Z,337.50
2019-06-26T05:04:05.709Z,354.38
2019-06-26T05:05:05.714Z,281.25
2019-06-26T05:06:05.693Z,213.75
2019-06-26T05:07:05.677Z,196.88
2019-06-26T05:08:05.683Z,196.88
2019-06-26T05:09:05.656Z,196.88
2019-06-26T05:10:05.672Z,196.88
2019-06-26T05:11:05.632Z,196.88
2019-06-26T05:12:05.620Z,202.50
2019-06-26T05:13:05.610Z,202.50
2019-06-26T05:14:05.639Z,202.50
2019-06-26T05:15:05.607Z,202.50
2019-06-26T05:16:15.090Z,208.12
2019-06-26T05:17:06.565Z,208.12
2019-06-26T05:18:05.551Z,213.75
2019-06-26T05:19:05.540Z,213.75
2019-06-26T05:20:05.760Z,219.38
2019-06-26T05:21:05.547Z,219.38
2019-06-26T05:22:05.506Z,225.00
2019-06-26T05:23:05.495Z,225.00
2019-06-26T05:24:05.500Z,225.00
2019-06-26T05:25:06.168Z,230.62
2019-06-26T05:26:05.460Z,230.62
2019-06-26T05:27:05.463Z,236.25
2019-06-26T05:28:08.277Z,236.25
2019-06-26T05:29:05.453Z,241.88
2019-06-26T05:30:05.419Z,241.88
2019-06-26T05:31:05.442Z,309.38
2019-06-26T05:32:05.397Z,365.62
2019-06-26T05:33:05.432Z,376.88
2019-06-26T05:34:05.395Z,258.75
2019-06-26T05:35:05.379Z,258.75
2019-06-26T05:36:05.377Z,258.75
2019-06-26T05:37:05.364Z,258.75
2019-06-26T05:38:05.336Z,264.38
2019-06-26T05:39:05.359Z,264.38
2019-06-26T05:40:06.332Z,286.88
2019-06-26T05:41:05.324Z,315.00
2019-06-26T05:42:06.764Z,286.88
2019-06-26T05:43:05.280Z,281.25
2019-06-26T05:44:05.270Z,281.25
2019-06-26T05:45:05.368Z,286.88
2019-06-26T05:46:05.307Z,286.88
2019-06-26T05:47:07.175Z,286.88
2019-06-26T05:48:05.232Z,292.50
2019-06-26T05:49:05.217Z,292.50
2019-06-26T05:50:05.203Z,298.12
2019-06-26T05:51:05.219Z,298.12
2019-06-26T05:52:05.235Z,303.75
2019-06-26T05:53:05.172Z,298.12
2019-06-26T05:54:05.190Z,298.12
2019-06-26T05:55:05.152Z,303.75
2019-06-26T05:56:05.238Z,303.75
2019-06-26T05:57:05.137Z,309.38
2019-06-26T05:58:05.180Z,309.38
2019-06-26T05:59:05.115Z,309.38
2019-06-26T06:00:05.098Z,315.00
2019-06-26T06:01:05.104Z,315.00
2019-06-26T06:02:05.099Z,320.62
2019-06-26T06:03:05.090Z,320.62
2019-06-26T06:04:05.070Z,320.62
2019-06-26T06:05:05.104Z,326.25
2019-06-26T06:06:05.054Z,331.88
2019-06-26T06:07:05.050Z,326.25
2019-06-26T06:08:05.014Z,331.88
2019-06-26T06:09:05.006Z,331.88
2019-06-26T06:10:05.017Z,331.88
2019-06-26T06:11:04.979Z,337.50
2019-06-26T06:12:04.989Z,343.12
2019-06-26T06:13:04.993Z,343.12
2019-06-26T06:14:04.948Z,343.12
2019-06-26T06:15:04.958Z,343.12
2019-06-26T06:16:06.542Z,343.12
2019-06-26T06:17:04.940Z,348.75
2019-06-26T06:18:04.919Z,348.75
2019-06-26T06:19:04.909Z,348.75
2019-06-26T06:20:04.883Z,354.38
2019-06-26T06:21:04.914Z,354.38
2019-06-26T06:22:04.914Z,360.00
2019-06-26T06:23:04.854Z,365.62
2019-06-26T06:24:04.849Z,365.62
2019-06-26T06:25:04.852Z,371.25
2019-06-26T06:26:04.822Z,371.25
2019-06-26T06:27:04.828Z,371.25
2019-06-26T06:28:04.801Z,376.88
2019-06-26T06:29:04.790Z,382.50
2019-06-26T06:30:04.818Z,382.50
2019-06-26T06:31:04.767Z,382.50
2019-06-26T06:32:04.778Z,388.12
2019-06-26T06:33:04.747Z,388.12
2019-06-26T06:34:04.736Z,393.75
2019-06-26T06:35:04.728Z,388.12
2019-06-26T06:36:04.713Z,393.75
2019-06-26T06:37:04.723Z,393.75
2019-06-26T06:38:04.714Z,399.38
2019-06-26T06:39:04.685Z,399.38
2019-06-26T06:40:04.672Z,399.38
2019-06-26T06:41:04.661Z,399.38
2019-06-26T06:42:04.675Z,472.50
2019-06-26T06:43:04.642Z,461.25
2019-06-26T06:44:04.631Z,410.62
2019-06-26T06:45:04.619Z,410.62
2019-06-26T06:46:04.607Z,410.62
2019-06-26T06:47:05.662Z,410.62
2019-06-26T06:48:04.624Z,410.62
2019-06-26T06:49:04.575Z,416.25
2019-06-26T06:50:04.564Z,421.88
2019-06-26T06:51:04.558Z,421.88
2019-06-26T06:52:04.545Z,427.50
2019-06-26T06:53:04.550Z,427.50
2019-06-26T06:54:04.570Z,427.50
2019-06-26T06:55:04.565Z,427.50
2019-06-26T06:56:04.501Z,433.12
2019-06-26T06:57:04.495Z,433.12
2019-06-26T06:58:04.510Z,433.12
2019-06-26T06:59:04.471Z,444.38
2019-06-26T07:00:04.496Z,444.38
2019-06-26T07:01:04.474Z,444.38
2019-06-26T07:02:04.440Z,455.62
2019-06-26T07:03:04.451Z,450.00
2019-06-26T07:04:04.430Z,461.25
2019-06-26T07:05:04.409Z,455.62
2019-06-26T07:06:04.394Z,466.88
2019-06-26T07:07:04.389Z,466.88
2019-06-26T07:08:04.403Z,466.88
2019-06-26T07:09:04.366Z,466.88
2019-06-26T07:10:04.355Z,466.88
2019-06-26T07:11:04.379Z,472.50
2019-06-26T07:12:04.333Z,472.50
2019-06-26T07:13:04.350Z,472.50
2019-06-26T07:14:04.317Z,478.12
2019-06-26T07:15:04.308Z,483.75
2019-06-26T07:16:04.307Z,483.75
2019-06-26T07:17:19.463Z,483.75
2019-06-26T07:18:05.294Z,489.38
2019-06-26T07:19:04.265Z,489.38
2019-06-26T07:20:04.256Z,495.00
2019-06-26T07:21:04.245Z,495.00
2019-06-26T07:22:07.178Z,489.38
2019-06-26T07:23:04.251Z,489.38
2019-06-26T07:24:04.247Z,500.62
2019-06-26T07:25:04.199Z,500.62
2019-06-26T07:26:04.194Z,500.62
2019-06-26T07:27:04.194Z,506.25
2019-06-26T07:28:04.213Z,511.88
2019-06-26T07:29:04.163Z,517.50
2019-06-26T07:30:04.159Z,523.12
2019-06-26T07:31:04.144Z,523.12
2019-06-26T07:32:04.156Z,528.75
2019-06-26T07:33:04.165Z,624.38
2019-06-26T07:34:04.143Z,720.00
2019-06-26T07:35:04.101Z,770.62
2019-06-26T07:36:04.088Z,1018.12
2019-06-26T07:37:04.077Z,1141.88
2019-06-26T07:38:04.197Z,793.12
2019-06-26T07:39:04.059Z,573.75
2019-06-26T07:40:04.055Z,551.25
2019-06-26T07:41:04.031Z,551.25
2019-06-26T07:42:04.023Z,551.25
2019-06-26T07:43:04.016Z,545.62
2019-06-26T07:44:04.051Z,720.00
2019-06-26T07:45:03.999Z,590.62
2019-06-26T07:46:03.980Z,731.25
2019-06-26T07:47:04.017Z,793.12
2019-06-26T07:48:03.961Z,759.38
2019-06-26T07:49:03.973Z,922.50
2019-06-26T07:50:03.944Z,1040.62
2019-06-26T07:51:03.928Z,1231.88
2019-06-26T07:52:03.920Z,1237.50
2019-06-26T07:53:03.908Z,939.38
2019-06-26T07:54:03.921Z,652.50
2019-06-26T07:55:03.890Z,596.25
2019-06-26T07:56:03.877Z,596.25
2019-06-26T07:57:03.912Z,590.62
2019-06-26T07:58:03.898Z,590.62
2019-06-26T07:59:03.875Z,691.88
2019-06-26T08:00:03.852Z,1046.25
2019-06-26T08:01:03.845Z,1681.88
2019-06-26T08:02:03.824Z,1800.00
2019-06-26T08:03:04.642Z,1873.12
2019-06-26T08:04:03.820Z,2120.62
2019-06-26T08:05:03.791Z,2193.75
2019-06-26T08:06:03.780Z,2115.00
2019-06-26T08:07:03.795Z,2081.25
2019-06-26T08:08:03.767Z,2193.75
2019-06-26T08:09:03.769Z,810.00
2019-06-26T08:10:03.774Z,1102.50
2019-06-26T08:11:06.392Z,1181.25
2019-06-26T08:12:03.723Z,675.00
2019-06-26T08:13:03.712Z,613.12
2019-06-26T08:14:04.073Z,624.38
2019-06-26T08:15:03.700Z,675.00
2019-06-26T08:16:03.691Z,900.00
2019-06-26T08:17:03.676Z,1805.62
2019-06-26T08:18:03.671Z,1980.00
2019-06-26T08:19:03.694Z,2205.00
2019-06-26T08:20:03.657Z,1996.88
2019-06-26T08:21:12.298Z,1237.50
2019-06-26T08:22:04.623Z,736.88
2019-06-26T08:23:03.655Z,1051.88
2019-06-26T08:24:04.188Z,1080.00
2019-06-26T08:25:03.599Z,1001.25
2019-06-26T08:26:03.602Z,1051.88
2019-06-26T08:27:03.590Z,1237.50
2019-06-26T08:28:03.587Z,630.00
2019-06-26T08:29:04.077Z,630.00
2019-06-26T08:30:03.613Z,1749.38
2019-06-26T08:31:03.546Z,1923.75
2019-06-26T08:32:03.537Z,2109.38
2019-06-26T08:33:03.578Z,2086.88
2019-06-26T08:34:03.531Z,1119.38
2019-06-26T08:35:04.322Z,2070.00
2019-06-26T08:36:03.508Z,1901.25
2019-06-26T08:37:03.522Z,2283.75
2019-06-26T08:38:10.986Z,2154.38
2019-06-26T08:39:04.473Z,2250.00
2019-06-26T08:40:03.517Z,2334.38
2019-06-26T08:41:03.483Z,2272.50
2019-06-26T08:42:03.475Z,2266.88
2019-06-26T08:43:03.459Z,2345.62
2019-06-26T08:44:03.451Z,2362.50
2019-06-26T08:45:03.505Z,2295.00
2019-06-26T08:46:03.419Z,2278.12
2019-06-26T08:47:03.403Z,2340.00
2019-06-26T08:48:17.367Z,2227.50
2019-06-26T08:49:04.405Z,2120.62
2019-06-26T08:50:03.454Z,2143.12
2019-06-26T08:51:03.383Z,2238.75
2019-06-26T08:52:03.357Z,2272.50
2019-06-26T08:53:03.352Z,2255.62
2019-06-26T08:54:04.857Z,2345.62
2019-06-26T08:55:03.359Z,2356.88
2019-06-26T08:56:03.359Z,2255.62
2019-06-26T08:57:03.329Z,2210.62
2019-06-26T08:58:03.323Z,2176.88
2019-06-26T08:59:03.309Z,2165.62
2019-06-26T09:00:03.389Z,2154.38
2019-06-26T09:01:03.316Z,2233.12
2019-06-26T09:02:03.286Z,2311.88
2019-06-26T09:03:03.274Z,2283.75
2019-06-26T09:04:03.279Z,2266.88
2019-06-26T09:05:03.322Z,2323.12
2019-06-26T09:06:03.263Z,2283.75
2019-06-26T09:07:03.245Z,2238.75
2019-06-26T09:08:03.306Z,2244.38
2019-06-26T09:09:03.228Z,2255.62
2019-06-26T09:10:03.374Z,2221.88
2019-06-26T09:11:03.209Z,2109.38
2019-06-26T09:12:03.226Z,1980.00
2019-06-26T09:13:03.196Z,1923.75
2019-06-26T09:14:03.193Z,2041.88
2019-06-26T09:15:03.559Z,2126.25
2019-06-26T09:16:03.747Z,2137.50
2019-06-26T09:17:03.180Z,2210.62
2019-06-26T09:18:03.174Z,2261.25
2019-06-26T09:19:03.153Z,2289.38
2019-06-26T09:20:03.158Z,2272.50
2019-06-26T09:21:03.155Z,2210.62
2019-06-26T09:22:03.135Z,2221.88
2019-06-26T09:23:03.114Z,2289.38
2019-06-26T09:24:03.121Z,2266.88
2019-06-26T09:25:19.812Z,2188.12
2019-06-26T09:26:04.133Z,2143.12
2019-06-26T09:27:03.098Z,2148.75
2019-06-26T09:28:03.095Z,2300.62
2019-06-26T09:29:03.075Z,2362.50
2019-06-26T09:30:03.126Z,2311.88
2019-06-26T09:31:03.107Z,2255.62
2019-06-26T09:32:03.055Z,2148.75
2019-06-26T09:33:03.048Z,2154.38
2019-06-26T09:34:03.050Z,2244.38
2019-06-26T09:35:03.030Z,2221.88
2019-06-26T09:36:06.729Z,2340.00
2019-06-26T09:37:03.022Z,2306.25
2019-06-26T09:38:03.013Z,2261.25
2019-06-26T09:39:03.056Z,2272.50
2019-06-26T09:40:03.088Z,2278.12
2019-06-26T09:41:03.031Z,2227.50
2019-06-26T09:42:03.026Z,2171.25
2019-06-26T09:43:02.979Z,2210.62
2019-06-26T09:44:03.057Z,2311.88
2019-06-26T09:45:02.966Z,2244.38
2019-06-26T09:46:03.210Z,2137.50
2019-06-26T09:47:02.950Z,2165.62
2019-06-26T09:48:02.959Z,2176.88
2019-06-26T09:49:02.949Z,2137.50
2019-06-26T09:50:03.049Z,2081.25
2019-06-26T09:51:03.024Z,2053.12
2019-06-26T09:52:02.928Z,2036.25
2019-06-26T09:53:05.301Z,2036.25
2019-06-26T09:54:02.937Z,2075.62
2019-06-26T09:55:02.893Z,2115.00
2019-06-26T09:56:04.131Z,2193.75
2019-06-26T09:57:02.890Z,2098.12
2019-06-26T09:58:02.876Z,2098.12
2019-06-26T09:59:02.866Z,2176.88
2019-06-26T10:00:02.869Z,1980.00
2019-06-26T10:01:04.149Z,1788.75
2019-06-26T10:02:02.860Z,1912.50
2019-06-26T10:03:02.851Z,2126.25
2019-06-26T10:04:02.899Z,2244.38
2019-06-26T10:05:02.978Z,2165.62
2019-06-26T10:06:03.410Z,2081.25
2019-06-26T10:07:02.794Z,2053.12
2019-06-26T10:08:02.788Z,2013.75
2019-06-26T10:09:02.797Z,1957.50
2019-06-26T10:10:02.832Z,1816.88
2019-06-26T10:11:03.313Z,1710.00
2019-06-26T10:12:02.769Z,1923.75
2019-06-26T10:13:02.757Z,1935.00
2019-06-26T10:14:02.750Z,1878.75
2019-06-26T10:15:02.758Z,1867.50
2019-06-26T10:16:02.730Z,1805.62
2019-06-26T10:17:03.322Z,1743.75
2019-06-26T10:18:02.722Z,1755.00
2019-06-26T10:19:09.973Z,1760.62
2019-06-26T10:20:03.849Z,1749.38
2019-06-26T10:21:02.725Z,1710.00
2019-06-26T10:22:02.718Z,1732.50
2019-06-26T10:23:02.682Z,1732.50
2019-06-26T10:24:02.684Z,1777.50
2019-06-26T10:25:02.669Z,1726.88
2019-06-26T10:26:02.649Z,1681.88
2019-06-26T10:27:03.320Z,1704.38
2019-06-26T10:28:02.635Z,1777.50
2019-06-26T10:29:02.626Z,1822.50
2019-06-26T10:30:02.685Z,1749.38
2019-06-26T10:31:02.618Z,1096.88
2019-06-26T10:32:03.298Z,511.88
2019-06-26T10:33:02.645Z,466.88
2019-06-26T10:34:02.598Z,455.62
2019-06-26T10:35:02.585Z,444.38
2019-06-26T10:36:02.578Z,438.75
2019-06-26T10:37:03.299Z,433.12
2019-06-26T10:38:02.583Z,427.50
2019-06-26T10:39:02.568Z,427.50
2019-06-26T10:40:02.561Z,421.88
2019-06-26T10:41:02.541Z,421.88
2019-06-26T10:42:02.528Z,421.88
2019-06-26T10:43:03.161Z,421.88
2019-06-26T10:44:02.509Z,421.88
2019-06-26T10:45:02.518Z,416.25
2019-06-26T10:46:02.491Z,416.25
2019-06-26T10:47:02.485Z,410.62
2019-06-26T10:48:03.135Z,410.62
2019-06-26T10:49:02.468Z,416.25
2019-06-26T10:50:02.472Z,410.62
2019-06-26T10:51:02.469Z,410.62
2019-06-26T10:52:02.457Z,405.00
2019-06-26T10:53:04.259Z,405.00
2019-06-26T10:54:02.415Z,399.38
2019-06-26T10:55:02.406Z,399.38
2019-06-26T10:56:02.399Z,399.38
2019-06-26T10:57:02.402Z,393.75
2019-06-26T10:58:03.054Z,393.75
2019-06-26T10:59:02.362Z,388.12
2019-06-26T11:00:02.361Z,388.12
2019-06-26T11:01:02.369Z,376.88
2019-06-26T11:02:02.475Z,388.12
2019-06-26T11:03:03.433Z,382.50
2019-06-26T11:04:02.372Z,388.12
2019-06-26T11:05:02.306Z,388.12
2019-06-26T11:06:02.320Z,382.50
2019-06-26T11:07:02.309Z,382.50
2019-06-26T11:08:02.322Z,376.88
2019-06-26T11:09:02.417Z,371.25
2019-06-26T11:10:02.266Z,365.62
2019-06-26T11:11:02.247Z,360.00
2019-06-26T11:12:02.292Z,354.38
2019-06-26T11:13:03.010Z,354.38
2019-06-26T11:14:02.237Z,354.38
2019-06-26T11:15:02.224Z,354.38
2019-06-26T11:16:02.211Z,354.38
2019-06-26T11:17:02.190Z,354.38
2019-06-26T11:18:03.395Z,354.38
2019-06-26T11:19:02.162Z,348.75
2019-06-26T11:20:02.160Z,343.12
2019-06-26T11:21:02.189Z,348.75
2019-06-26T11:22:02.142Z,348.75
2019-06-26T11:23:02.165Z,348.75
2019-06-26T11:24:02.115Z,343.12
2019-06-26T11:25:02.138Z,343.12
2019-06-26T11:26:02.102Z,343.12
2019-06-26T11:27:02.092Z,343.12
2019-06-26T11:28:04.195Z,348.75
2019-06-26T11:29:02.127Z,343.12
2019-06-26T11:30:02.075Z,337.50
2019-06-26T11:31:02.046Z,331.88
2019-06-26T11:32:02.029Z,331.88
2019-06-26T11:33:03.342Z,331.88
2019-06-26T11:34:02.014Z,326.25
2019-06-26T11:35:02.033Z,326.25
2019-06-26T11:36:02.008Z,326.25
2019-06-26T11:37:04.093Z,326.25
2019-06-26T11:38:03.207Z,320.62
2019-06-26T11:39:02.032Z,331.88
2019-06-26T11:40:02.115Z,326.25
2019-06-26T11:41:02.151Z,326.25
2019-06-26T11:42:01.933Z,326.25
2019-06-26T11:43:03.127Z,320.62
2019-06-26T11:44:01.909Z,320.62
2019-06-26T11:45:01.922Z,315.00
2019-06-26T11:46:01.917Z,315.00
2019-06-26T11:47:01.889Z,315.00
2019-06-26T11:48:03.078Z,315.00
2019-06-26T11:49:01.877Z,315.00
2019-06-26T11:50:01.850Z,309.38
2019-06-26T11:51:01.871Z,309.38
2019-06-26T11:52:01.892Z,309.38
2019-06-26T11:53:01.821Z,303.75
2019-06-26T11:54:04.064Z,298.12
2019-06-26T11:55:03.634Z,298.12
2019-06-26T11:56:01.792Z,292.50
2019-06-26T11:57:01.783Z,292.50
2019-06-26T11:58:01.770Z,292.50
2019-06-26T11:59:04.413Z,298.12
2019-06-26T12:00:02.086Z,298.12
2019-06-26T12:01:01.895Z,298.12
2019-06-26T12:02:01.729Z,298.12
2019-06-26T12:03:01.740Z,298.12
2019-06-26T12:04:04.246Z,292.50
2019-06-26T12:05:01.794Z,286.88
2019-06-26T12:06:15.200Z,286.88
2019-06-26T12:07:02.799Z,281.25
2019-06-26T12:08:01.682Z,275.62
2019-06-26T12:09:03.161Z,270.00
2019-06-26T12:10:01.787Z,270.00
2019-06-26T12:11:01.640Z,270.00
2019-06-26T12:12:01.628Z,270.00
2019-06-26T12:13:04.067Z,270.00
2019-06-26T12:14:04.707Z,270.00
2019-06-26T12:15:01.643Z,264.38
2019-06-26T12:16:01.581Z,258.75
2019-06-26T12:17:01.570Z,253.12
2019-06-26T12:18:01.563Z,253.12
2019-06-26T12:19:03.268Z,247.50
2019-06-26T12:20:16.933Z,247.50
2019-06-26T12:21:02.530Z,247.50
2019-06-26T12:22:01.527Z,253.12
2019-06-26T12:23:01.509Z,247.50
2019-06-26T12:24:01.544Z,247.50
2019-06-26T12:25:01.489Z,241.88
2019-06-26T12:26:01.483Z,241.88
2019-06-26T12:27:01.474Z,236.25
2019-06-26T12:28:01.455Z,230.62
2019-06-26T12:29:01.454Z,230.62
2019-06-26T12:30:03.502Z,230.62
2019-06-26T12:31:01.428Z,230.62
2019-06-26T12:32:01.433Z,230.62
2019-06-26T12:33:03.206Z,225.00
2019-06-26T12:34:01.604Z,225.00
2019-06-26T12:35:03.010Z,219.38
2019-06-26T12:36:01.379Z,219.38
2019-06-26T12:37:01.361Z,219.38
2019-06-26T12:38:01.369Z,213.75